KVNY/VNY METAR and TAF weather

Enter ICAO airport designator
Station Type Date Time Source
KVNY METAR 2020/01/29 12:51 UTC NOAA

KVNY 291251Z AUTO 34014KT 10SM CLR 14/00 A3003 RMK AO2 SLP161 T01440000


Station Type Date Time Source
KVNY Decoded METAR 2020/01/29 12:51 UTC NOAA

VAN NUYS AIRPORT, CA, United States (KVNY) 34-13N 118-29W 245M
Jan 29, 2020 - 07:51 AM EST / 2020.01.29 1251 UTC
Wind: from the NNW (340 degrees) at 16 MPH (14 KT):0
Visibility: 10 mile(s):0
Sky conditions: clear
Temperature: 57.9 F (14.4 C)
Dew Point: 32.0 F (0.0 C)
Relative Humidity: 37%
Pressure (altimeter): 30.03 in. Hg (1016 hPa)
ob: KVNY 291251Z AUTO 34014KT 10SM CLR 14/00 A3003 RMK AO2 SLP161 T01440000
cycle: 13

Station Type Date Time Source
KVNY TAF 2020/01/29 12:45 UTC NOAA

TAF KVNY 291142Z 2912/3012 35015G25KT P6SM SCT250
FM291600 01020G30KT P6SM SKC
FM292200 01025G35KT P6SM SKC
FM300100 01020G30KT P6SM SKC
FM300900 35012KT P6SM SKC

Example: see airport list